sensor_id;sensor_type;location;lat;lon;timestamp;P1;durP1;ratioP1;P2;durP2;ratioP2
9795;SDS011;4937;42.680;27.704;2024-02-23T00:00:50;26.23;;;12.25;;
9795;SDS011;4937;42.680;27.704;2024-02-23T00:03:15;25.90;;;11.02;;
9795;SDS011;4937;42.680;27.704;2024-02-23T00:05:41;25.25;;;11.25;;
9795;SDS011;4937;42.680;27.704;2024-02-23T00:08:06;28.00;;;13.63;;
9795;SDS011;4937;42.680;27.704;2024-02-23T00:10:33;26.38;;;12.68;;
9795;SDS011;4937;42.680;27.704;2024-02-23T00:12:59;26.48;;;12.27;;
9795;SDS011;4937;42.680;27.704;2024-02-23T00:15:26;23.17;;;11.43;;
9795;SDS011;4937;42.680;27.704;2024-02-23T00:17:51;28.15;;;12.65;;
9795;SDS011;4937;42.680;27.704;2024-02-23T00:20:17;29.13;;;12.52;;
9795;SDS011;4937;42.680;27.704;2024-02-23T00:22:42;24.38;;;12.23;;
9795;SDS011;4937;42.680;27.704;2024-02-23T00:25:08;27.83;;;12.45;;
9795;SDS011;4937;42.680;27.704;2024-02-23T00:27:33;22.85;;;12.57;;
9795;SDS011;4937;42.680;27.704;2024-02-23T00:29:59;29.83;;;12.93;;
9795;SDS011;4937;42.680;27.704;2024-02-23T00:32:25;29.38;;;11.50;;
9795;SDS011;4937;42.680;27.704;2024-02-23T00:34:50;20.45;;;10.23;;
9795;SDS011;4937;42.680;27.704;2024-02-23T00:37:16;28.00;;;12.38;;
9795;SDS011;4937;42.680;27.704;2024-02-23T00:39:41;25.40;;;12.23;;
9795;SDS011;4937;42.680;27.704;2024-02-23T00:42:07;23.92;;;11.15;;
9795;SDS011;4937;42.680;27.704;2024-02-23T00:44:32;31.10;;;12.45;;
9795;SDS011;4937;42.680;27.704;2024-02-23T00:46:58;25.48;;;11.45;;
9795;SDS011;4937;42.680;27.704;2024-02-23T00:49:26;25.83;;;12.98;;
9795;SDS011;4937;42.680;27.704;2024-02-23T00:51:53;26.55;;;12.30;;
9795;SDS011;4937;42.680;27.704;2024-02-23T00:54:18;26.80;;;11.85;;
9795;SDS011;4937;42.680;27.704;2024-02-23T00:56:44;24.17;;;11.38;;
9795;SDS011;4937;42.680;27.704;2024-02-23T00:59:10;25.92;;;11.93;;
9795;SDS011;4937;42.680;27.704;2024-02-23T01:01:35;30.73;;;14.13;;
9795;SDS011;4937;42.680;27.704;2024-02-23T01:04:01;24.45;;;11.90;;
9795;SDS011;4937;42.680;27.704;2024-02-23T01:06:27;24.38;;;12.23;;
9795;SDS011;4937;42.680;27.704;2024-02-23T01:08:53;29.73;;;13.85;;
9795;SDS011;4937;42.680;27.704;2024-02-23T01:11:19;26.45;;;11.98;;
9795;SDS011;4937;42.680;27.704;2024-02-23T01:13:44;29.90;;;12.52;;
9795;SDS011;4937;42.680;27.704;2024-02-23T01:16:10;27.23;;;13.38;;
9795;SDS011;4937;42.680;27.704;2024-02-23T01:18:35;26.67;;;13.32;;
9795;SDS011;4937;42.680;27.704;2024-02-23T01:21:01;30.70;;;14.52;;
9795;SDS011;4937;42.680;27.704;2024-02-23T01:23:26;24.77;;;11.73;;
9795;SDS011;4937;42.680;27.704;2024-02-23T01:25:52;24.67;;;12.65;;
9795;SDS011;4937;42.680;27.704;2024-02-23T01:28:36;26.52;;;12.45;;
9795;SDS011;4937;42.680;27.704;2024-02-23T01:31:02;24.65;;;13.48;;
9795;SDS011;4937;42.680;27.704;2024-02-23T01:33:29;27.55;;;12.43;;
9795;SDS011;4937;42.680;27.704;2024-02-23T01:35:54;26.23;;;10.52;;
9795;SDS011;4937;42.680;27.704;2024-02-23T01:38:21;31.85;;;12.52;;
9795;SDS011;4937;42.680;27.704;2024-02-23T01:40:47;25.10;;;11.63;;
9795;SDS011;4937;42.680;27.704;2024-02-23T01:43:13;29.10;;;13.10;;
9795;SDS011;4937;42.680;27.704;2024-02-23T01:45:38;25.95;;;12.57;;
9795;SDS011;4937;42.680;27.704;2024-02-23T01:48:04;30.48;;;13.07;;
9795;SDS011;4937;42.680;27.704;2024-02-23T01:50:31;24.35;;;11.05;;
9795;SDS011;4937;42.680;27.704;2024-02-23T01:52:58;25.10;;;13.05;;
9795;SDS011;4937;42.680;27.704;2024-02-23T01:55:27;28.55;;;12.38;;
9795;SDS011;4937;42.680;27.704;2024-02-23T01:57:53;24.75;;;12.15;;
9795;SDS011;4937;42.680;27.704;2024-02-23T02:00:20;27.17;;;12.27;;
9795;SDS011;4937;42.680;27.704;2024-02-23T02:02:47;27.17;;;12.55;;
9795;SDS011;4937;42.680;27.704;2024-02-23T02:05:13;27.10;;;12.23;;
9795;SDS011;4937;42.680;27.704;2024-02-23T02:07:40;26.27;;;12.20;;
9795;SDS011;4937;42.680;27.704;2024-02-23T02:10:07;21.80;;;10.98;;
9795;SDS011;4937;42.680;27.704;2024-02-23T02:12:34;26.30;;;11.60;;
9795;SDS011;4937;42.680;27.704;2024-02-23T02:15:00;29.38;;;12.45;;
9795;SDS011;4937;42.680;27.704;2024-02-23T02:17:30;29.30;;;13.25;;
9795;SDS011;4937;42.680;27.704;2024-02-23T02:19:55;30.35;;;13.93;;
9795;SDS011;4937;42.680;27.704;2024-02-23T02:22:24;33.47;;;14.23;;
9795;SDS011;4937;42.680;27.704;2024-02-23T02:24:52;30.48;;;13.38;;
9795;SDS011;4937;42.680;27.704;2024-02-23T02:27:18;24.98;;;11.40;;
9795;SDS011;4937;42.680;27.704;2024-02-23T02:29:43;31.90;;;13.68;;
9795;SDS011;4937;42.680;27.704;2024-02-23T02:32:08;27.73;;;12.27;;
9795;SDS011;4937;42.680;27.704;2024-02-23T02:34:34;29.23;;;12.90;;
9795;SDS011;4937;42.680;27.704;2024-02-23T02:37:00;30.63;;;12.15;;
9795;SDS011;4937;42.680;27.704;2024-02-23T02:39:26;22.05;;;11.90;;
9795;SDS011;4937;42.680;27.704;2024-02-23T02:41:52;28.83;;;12.32;;
9795;SDS011;4937;42.680;27.704;2024-02-23T02:44:17;33.25;;;13.57;;
9795;SDS011;4937;42.680;27.704;2024-02-23T02:46:43;20.95;;;10.43;;
9795;SDS011;4937;42.680;27.704;2024-02-23T02:49:08;26.23;;;12.27;;
9795;SDS011;4937;42.680;27.704;2024-02-23T02:51:34;22.83;;;11.98;;
9795;SDS011;4937;42.680;27.704;2024-02-23T02:54:00;23.75;;;11.85;;
9795;SDS011;4937;42.680;27.704;2024-02-23T02:56:25;23.98;;;11.65;;
9795;SDS011;4937;42.680;27.704;2024-02-23T02:58:51;27.67;;;11.75;;
9795;SDS011;4937;42.680;27.704;2024-02-23T03:01:16;22.38;;;11.48;;
9795;SDS011;4937;42.680;27.704;2024-02-23T03:03:42;23.73;;;10.93;;
9795;SDS011;4937;42.680;27.704;2024-02-23T03:06:07;22.85;;;11.88;;
9795;SDS011;4937;42.680;27.704;2024-02-23T03:08:33;30.27;;;11.95;;
9795;SDS011;4937;42.680;27.704;2024-02-23T03:10:59;31.45;;;12.48;;
9795;SDS011;4937;42.680;27.704;2024-02-23T03:13:24;26.10;;;11.43;;
9795;SDS011;4937;42.680;27.704;2024-02-23T03:15:50;23.52;;;11.18;;
9795;SDS011;4937;42.680;27.704;2024-02-23T03:18:16;28.42;;;10.82;;
9795;SDS011;4937;42.680;27.704;2024-02-23T03:20:41;25.45;;;11.88;;
9795;SDS011;4937;42.680;27.704;2024-02-23T03:23:07;26.25;;;11.18;;
9795;SDS011;4937;42.680;27.704;2024-02-23T03:25:33;21.98;;;12.02;;
9795;SDS011;4937;42.680;27.704;2024-02-23T03:27:58;25.45;;;11.20;;
9795;SDS011;4937;42.680;27.704;2024-02-23T03:30:24;22.17;;;10.02;;
9795;SDS011;4937;42.680;27.704;2024-02-23T03:32:49;29.90;;;13.32;;
9795;SDS011;4937;42.680;27.704;2024-02-23T03:35:15;21.90;;;9.90;;
9795;SDS011;4937;42.680;27.704;2024-02-23T03:37:41;23.40;;;11.45;;
9795;SDS011;4937;42.680;27.704;2024-02-23T03:40:06;24.13;;;11.48;;
9795;SDS011;4937;42.680;27.704;2024-02-23T03:42:32;26.35;;;12.10;;
9795;SDS011;4937;42.680;27.704;2024-02-23T03:44:58;22.88;;;12.20;;
9795;SDS011;4937;42.680;27.704;2024-02-23T03:47:24;20.98;;;11.40;;
9795;SDS011;4937;42.680;27.704;2024-02-23T03:49:49;23.38;;;11.68;;
9795;SDS011;4937;42.680;27.704;2024-02-23T03:52:15;25.00;;;12.15;;
9795;SDS011;4937;42.680;27.704;2024-02-23T03:54:41;24.85;;;11.68;;
9795;SDS011;4937;42.680;27.704;2024-02-23T03:57:06;21.67;;;10.73;;
9795;SDS011;4937;42.680;27.704;2024-02-23T03:59:32;22.17;;;10.25;;
9795;SDS011;4937;42.680;27.704;2024-02-23T04:01:57;23.05;;;10.15;;
9795;SDS011;4937;42.680;27.704;2024-02-23T04:04:25;22.63;;;11.07;;
9795;SDS011;4937;42.680;27.704;2024-02-23T04:06:51;28.25;;;13.00;;
9795;SDS011;4937;42.680;27.704;2024-02-23T04:09:16;26.30;;;12.13;;
9795;SDS011;4937;42.680;27.704;2024-02-23T04:11:42;27.80;;;11.77;;
9795;SDS011;4937;42.680;27.704;2024-02-23T04:14:07;28.52;;;12.38;;
9795;SDS011;4937;42.680;27.704;2024-02-23T04:16:33;26.63;;;11.68;;
9795;SDS011;4937;42.680;27.704;2024-02-23T04:18:58;24.90;;;10.65;;
9795;SDS011;4937;42.680;27.704;2024-02-23T04:21:25;26.98;;;12.63;;
9795;SDS011;4937;42.680;27.704;2024-02-23T04:23:50;24.60;;;11.18;;
9795;SDS011;4937;42.680;27.704;2024-02-23T04:26:16;22.70;;;11.77;;
9795;SDS011;4937;42.680;27.704;2024-02-23T04:28:42;30.48;;;13.32;;
9795;SDS011;4937;42.680;27.704;2024-02-23T04:31:08;28.65;;;13.07;;
9795;SDS011;4937;42.680;27.704;2024-02-23T04:33:35;25.67;;;11.52;;
9795;SDS011;4937;42.680;27.704;2024-02-23T04:36:01;25.88;;;12.50;;
9795;SDS011;4937;42.680;27.704;2024-02-23T04:38:28;25.80;;;12.70;;
9795;SDS011;4937;42.680;27.704;2024-02-23T04:40:54;24.77;;;12.18;;
9795;SDS011;4937;42.680;27.704;2024-02-23T04:43:20;28.73;;;12.63;;
9795;SDS011;4937;42.680;27.704;2024-02-23T04:45:46;34.97;;;14.88;;
9795;SDS011;4937;42.680;27.704;2024-02-23T04:48:11;30.75;;;14.45;;
9795;SDS011;4937;42.680;27.704;2024-02-23T04:50:37;27.20;;;11.82;;
9795;SDS011;4937;42.680;27.704;2024-02-23T04:53:02;26.42;;;12.50;;
9795;SDS011;4937;42.680;27.704;2024-02-23T04:55:28;31.98;;;13.02;;
9795;SDS011;4937;42.680;27.704;2024-02-23T04:57:53;27.15;;;12.23;;
9795;SDS011;4937;42.680;27.704;2024-02-23T05:00:19;23.60;;;10.30;;
9795;SDS011;4937;42.680;27.704;2024-02-23T05:02:45;27.90;;;12.80;;
9795;SDS011;4937;42.680;27.704;2024-02-23T05:05:11;28.77;;;12.18;;
9795;SDS011;4937;42.680;27.704;2024-02-23T05:07:37;22.88;;;11.38;;
9795;SDS011;4937;42.680;27.704;2024-02-23T05:10:03;23.55;;;11.73;;
9795;SDS011;4937;42.680;27.704;2024-02-23T05:12:29;28.88;;;13.75;;
9795;SDS011;4937;42.680;27.704;2024-02-23T05:14:54;25.73;;;11.93;;
9795;SDS011;4937;42.680;27.704;2024-02-23T05:17:20;26.38;;;13.40;;
9795;SDS011;4937;42.680;27.704;2024-02-23T05:19:45;24.73;;;11.98;;
9795;SDS011;4937;42.680;27.704;2024-02-23T05:22:12;24.30;;;11.25;;
9795;SDS011;4937;42.680;27.704;2024-02-23T05:24:37;24.48;;;10.45;;
9795;SDS011;4937;42.680;27.704;2024-02-23T05:27:03;25.73;;;12.20;;
9795;SDS011;4937;42.680;27.704;2024-02-23T05:29:29;28.33;;;12.40;;
9795;SDS011;4937;42.680;27.704;2024-02-23T05:31:54;22.08;;;10.98;;
9795;SDS011;4937;42.680;27.704;2024-02-23T05:34:20;21.00;;;10.85;;
9795;SDS011;4937;42.680;27.704;2024-02-23T05:36:46;21.10;;;10.65;;
9795;SDS011;4937;42.680;27.704;2024-02-23T05:39:13;20.42;;;11.15;;
9795;SDS011;4937;42.680;27.704;2024-02-23T05:41:40;25.40;;;12.10;;
9795;SDS011;4937;42.680;27.704;2024-02-23T05:44:06;20.73;;;10.88;;
9795;SDS011;4937;42.680;27.704;2024-02-23T05:46:32;23.30;;;12.45;;
9795;SDS011;4937;42.680;27.704;2024-02-23T05:48:58;24.02;;;12.32;;
9795;SDS011;4937;42.680;27.704;2024-02-23T05:51:24;19.52;;;11.77;;
9795;SDS011;4937;42.680;27.704;2024-02-23T05:53:49;23.02;;;11.20;;
9795;SDS011;4937;42.680;27.704;2024-02-23T05:56:15;23.55;;;11.82;;
9795;SDS011;4937;42.680;27.704;2024-02-23T05:58:40;21.33;;;11.35;;
9795;SDS011;4937;42.680;27.704;2024-02-23T06:01:06;25.27;;;11.35;;
9795;SDS011;4937;42.680;27.704;2024-02-23T06:03:32;21.20;;;10.57;;
9795;SDS011;4937;42.680;27.704;2024-02-23T06:05:58;19.45;;;11.25;;
9795;SDS011;4937;42.680;27.704;2024-02-23T06:08:23;21.63;;;12.85;;
9795;SDS011;4937;42.680;27.704;2024-02-23T06:10:49;22.35;;;12.38;;
9795;SDS011;4937;42.680;27.704;2024-02-23T06:13:14;20.10;;;11.73;;
9795;SDS011;4937;42.680;27.704;2024-02-23T06:15:40;22.70;;;11.52;;
9795;SDS011;4937;42.680;27.704;2024-02-23T06:18:07;21.52;;;12.90;;
9795;SDS011;4937;42.680;27.704;2024-02-23T06:20:32;19.50;;;11.57;;
9795;SDS011;4937;42.680;27.704;2024-02-23T06:22:58;19.33;;;11.45;;
9795;SDS011;4937;42.680;27.704;2024-02-23T06:25:23;16.80;;;11.05;;
9795;SDS011;4937;42.680;27.704;2024-02-23T06:27:49;20.60;;;12.00;;
9795;SDS011;4937;42.680;27.704;2024-02-23T06:30:14;21.45;;;12.70;;
9795;SDS011;4937;42.680;27.704;2024-02-23T06:32:40;20.35;;;11.57;;
9795;SDS011;4937;42.680;27.704;2024-02-23T06:35:06;22.85;;;12.25;;
9795;SDS011;4937;42.680;27.704;2024-02-23T06:37:32;17.02;;;10.13;;
9795;SDS011;4937;42.680;27.704;2024-02-23T06:39:58;19.70;;;10.65;;
9795;SDS011;4937;42.680;27.704;2024-02-23T06:42:24;22.02;;;11.48;;
9795;SDS011;4937;42.680;27.704;2024-02-23T06:44:50;16.52;;;9.70;;
9795;SDS011;4937;42.680;27.704;2024-02-23T06:47:15;17.42;;;11.13;;
9795;SDS011;4937;42.680;27.704;2024-02-23T06:49:41;19.20;;;12.00;;
9795;SDS011;4937;42.680;27.704;2024-02-23T06:52:08;21.17;;;14.02;;
9795;SDS011;4937;42.680;27.704;2024-02-23T06:54:34;20.08;;;12.30;;
9795;SDS011;4937;42.680;27.704;2024-02-23T06:56:59;16.10;;;11.25;;
9795;SDS011;4937;42.680;27.704;2024-02-23T06:59:25;18.02;;;12.77;;
9795;SDS011;4937;42.680;27.704;2024-02-23T07:01:51;18.15;;;11.88;;
9795;SDS011;4937;42.680;27.704;2024-02-23T07:04:17;14.32;;;11.48;;
9795;SDS011;4937;42.680;27.704;2024-02-23T07:06:43;22.77;;;14.57;;
9795;SDS011;4937;42.680;27.704;2024-02-23T07:09:09;18.25;;;14.32;;
9795;SDS011;4937;42.680;27.704;2024-02-23T07:11:36;20.15;;;15.98;;
9795;SDS011;4937;42.680;27.704;2024-02-23T07:14:02;16.38;;;13.93;;
9795;SDS011;4937;42.680;27.704;2024-02-23T07:16:28;13.30;;;11.70;;
9795;SDS011;4937;42.680;27.704;2024-02-23T07:18:54;34.00;;;17.33;;
9795;SDS011;4937;42.680;27.704;2024-02-23T07:21:20;19.55;;;13.40;;
9795;SDS011;4937;42.680;27.704;2024-02-23T07:23:46;16.98;;;13.73;;
9795;SDS011;4937;42.680;27.704;2024-02-23T07:26:11;15.60;;;13.95;;
9795;SDS011;4937;42.680;27.704;2024-02-23T07:28:37;14.02;;;12.50;;
9795;SDS011;4937;42.680;27.704;2024-02-23T07:31:02;16.15;;;14.55;;
9795;SDS011;4937;42.680;27.704;2024-02-23T07:33:28;15.88;;;13.10;;
9795;SDS011;4937;42.680;27.704;2024-02-23T07:35:53;19.52;;;15.10;;
9795;SDS011;4937;42.680;27.704;2024-02-23T07:38:19;14.25;;;12.68;;
9795;SDS011;4937;42.680;27.704;2024-02-23T07:40:44;16.50;;;14.70;;
9795;SDS011;4937;42.680;27.704;2024-02-23T07:43:10;14.68;;;13.18;;
9795;SDS011;4937;42.680;27.704;2024-02-23T07:45:36;17.38;;;14.50;;
9795;SDS011;4937;42.680;27.704;2024-02-23T07:48:02;15.25;;;13.65;;
9795;SDS011;4937;42.680;27.704;2024-02-23T07:50:28;17.45;;;14.68;;
9795;SDS011;4937;42.680;27.704;2024-02-23T07:52:54;16.73;;;14.88;;
9795;SDS011;4937;42.680;27.704;2024-02-23T07:55:19;16.17;;;14.48;;
9795;SDS011;4937;42.680;27.704;2024-02-23T07:57:45;17.35;;;15.27;;
9795;SDS011;4937;42.680;27.704;2024-02-23T08:00:11;17.90;;;14.85;;
9795;SDS011;4937;42.680;27.704;2024-02-23T08:02:37;15.50;;;13.07;;
9795;SDS011;4937;42.680;27.704;2024-02-23T08:05:03;17.58;;;15.07;;
9795;SDS011;4937;42.680;27.704;2024-02-23T08:07:29;16.77;;;14.98;;
9795;SDS011;4937;42.680;27.704;2024-02-23T08:09:56;17.70;;;14.68;;
9795;SDS011;4937;42.680;27.704;2024-02-23T08:12:22;16.98;;;13.63;;
9795;SDS011;4937;42.680;27.704;2024-02-23T08:14:47;17.83;;;15.07;;
9795;SDS011;4937;42.680;27.704;2024-02-23T08:17:15;18.58;;;14.27;;
9795;SDS011;4937;42.680;27.704;2024-02-23T08:19:41;16.52;;;14.82;;
9795;SDS011;4937;42.680;27.704;2024-02-23T08:22:06;16.40;;;14.45;;
9795;SDS011;4937;42.680;27.704;2024-02-23T08:24:32;18.63;;;15.90;;
9795;SDS011;4937;42.680;27.704;2024-02-23T08:26:58;17.35;;;15.10;;
9795;SDS011;4937;42.680;27.704;2024-02-23T08:29:23;17.13;;;15.05;;
9795;SDS011;4937;42.680;27.704;2024-02-23T08:31:51;16.30;;;13.77;;
9795;SDS011;4937;42.680;27.704;2024-02-23T08:34:16;16.73;;;13.68;;
9795;SDS011;4937;42.680;27.704;2024-02-23T08:36:42;15.43;;;13.25;;
9795;SDS011;4937;42.680;27.704;2024-02-23T08:39:08;15.63;;;13.05;;
9795;SDS011;4937;42.680;27.704;2024-02-23T08:41:34;16.77;;;14.52;;
9795;SDS011;4937;42.680;27.704;2024-02-23T08:43:59;14.95;;;13.35;;
9795;SDS011;4937;42.680;27.704;2024-02-23T08:46:25;16.55;;;14.10;;
9795;SDS011;4937;42.680;27.704;2024-02-23T08:48:50;19.15;;;14.55;;
9795;SDS011;4937;42.680;27.704;2024-02-23T08:51:16;19.70;;;15.52;;
9795;SDS011;4937;42.680;27.704;2024-02-23T08:53:41;17.58;;;13.80;;
9795;SDS011;4937;42.680;27.704;2024-02-23T08:56:07;18.35;;;16.15;;
9795;SDS011;4937;42.680;27.704;2024-02-23T08:58:33;16.65;;;14.27;;
9795;SDS011;4937;42.680;27.704;2024-02-23T09:00:59;15.75;;;14.15;;
9795;SDS011;4937;42.680;27.704;2024-02-23T09:03:24;17.30;;;14.32;;
9795;SDS011;4937;42.680;27.704;2024-02-23T09:05:50;15.50;;;13.82;;
9795;SDS011;4937;42.680;27.704;2024-02-23T09:08:15;17.67;;;14.15;;
9795;SDS011;4937;42.680;27.704;2024-02-23T09:10:41;16.92;;;13.80;;
9795;SDS011;4937;42.680;27.704;2024-02-23T09:13:06;31.90;;;14.20;;
9795;SDS011;4937;42.680;27.704;2024-02-23T09:15:32;17.35;;;13.68;;
9795;SDS011;4937;42.680;27.704;2024-02-23T09:17:57;17.98;;;13.93;;
9795;SDS011;4937;42.680;27.704;2024-02-23T09:20:23;16.50;;;13.52;;
9795;SDS011;4937;42.680;27.704;2024-02-23T09:22:48;15.07;;;12.63;;
9795;SDS011;4937;42.680;27.704;2024-02-23T09:25:14;16.92;;;13.23;;
9795;SDS011;4937;42.680;27.704;2024-02-23T09:27:40;19.90;;;15.25;;
9795;SDS011;4937;42.680;27.704;2024-02-23T09:30:11;16.63;;;13.00;;
9795;SDS011;4937;42.680;27.704;2024-02-23T09:32:38;16.42;;;13.48;;
9795;SDS011;4937;42.680;27.704;2024-02-23T09:35:04;14.57;;;11.85;;
9795;SDS011;4937;42.680;27.704;2024-02-23T09:37:30;17.88;;;14.20;;
9795;SDS011;4937;42.680;27.704;2024-02-23T09:39:56;16.02;;;13.45;;
9795;SDS011;4937;42.680;27.704;2024-02-23T09:42:22;20.05;;;14.70;;
9795;SDS011;4937;42.680;27.704;2024-02-23T09:44:51;19.25;;;14.43;;
9795;SDS011;4937;42.680;27.704;2024-02-23T09:47:24;19.48;;;14.65;;
9795;SDS011;4937;42.680;27.704;2024-02-23T09:49:51;18.50;;;13.55;;
9795;SDS011;4937;42.680;27.704;2024-02-23T09:52:18;17.90;;;12.57;;
9795;SDS011;4937;42.680;27.704;2024-02-23T09:54:45;18.98;;;13.13;;
9795;SDS011;4937;42.680;27.704;2024-02-23T09:57:11;19.83;;;13.00;;
9795;SDS011;4937;42.680;27.704;2024-02-23T09:59:36;17.40;;;12.68;;
9795;SDS011;4937;42.680;27.704;2024-02-23T10:02:03;20.73;;;12.77;;
9795;SDS011;4937;42.680;27.704;2024-02-23T10:04:37;18.65;;;12.55;;
9795;SDS011;4937;42.680;27.704;2024-02-23T10:07:04;19.30;;;13.07;;
9795;SDS011;4937;42.680;27.704;2024-02-23T10:09:31;18.70;;;11.77;;
9795;SDS011;4937;42.680;27.704;2024-02-23T10:11:56;18.73;;;11.93;;
9795;SDS011;4937;42.680;27.704;2024-02-23T10:14:22;18.90;;;12.40;;
9795;SDS011;4937;42.680;27.704;2024-02-23T10:16:48;21.42;;;11.30;;
9795;SDS011;4937;42.680;27.704;2024-02-23T10:19:18;26.00;;;12.30;;
9795;SDS011;4937;42.680;27.704;2024-02-23T10:21:47;19.98;;;12.70;;
9795;SDS011;4937;42.680;27.704;2024-02-23T10:24:13;20.35;;;12.07;;
9795;SDS011;4937;42.680;27.704;2024-02-23T10:26:41;17.50;;;11.15;;
9795;SDS011;4937;42.680;27.704;2024-02-23T10:29:07;22.92;;;12.18;;
9795;SDS011;4937;42.680;27.704;2024-02-23T10:31:34;18.05;;;11.43;;
9795;SDS011;4937;42.680;27.704;2024-02-23T10:34:08;19.25;;;12.45;;
9795;SDS011;4937;42.680;27.704;2024-02-23T10:36:37;17.23;;;11.30;;
9795;SDS011;4937;42.680;27.704;2024-02-23T10:39:07;17.17;;;10.05;;
9795;SDS011;4937;42.680;27.704;2024-02-23T10:41:37;20.30;;;10.88;;
9795;SDS011;4937;42.680;27.704;2024-02-23T10:44:09;21.33;;;11.20;;
9795;SDS011;4937;42.680;27.704;2024-02-23T10:46:36;16.98;;;10.45;;
9795;SDS011;4937;42.680;27.704;2024-02-23T10:49:02;15.57;;;10.20;;
9795;SDS011;4937;42.680;27.704;2024-02-23T10:51:29;16.63;;;9.48;;
9795;SDS011;4937;42.680;27.704;2024-02-23T10:53:56;16.50;;;9.27;;
9795;SDS011;4937;42.680;27.704;2024-02-23T10:56:22;13.80;;;10.05;;
9795;SDS011;4937;42.680;27.704;2024-02-23T10:58:49;13.88;;;8.73;;
9795;SDS011;4937;42.680;27.704;2024-02-23T11:01:15;18.30;;;9.95;;
9795;SDS011;4937;42.680;27.704;2024-02-23T11:03:43;14.57;;;9.73;;
9795;SDS011;4937;42.680;27.704;2024-02-23T11:06:15;17.65;;;11.75;;
9795;SDS011;4937;42.680;27.704;2024-02-23T11:08:46;12.10;;;8.93;;
9795;SDS011;4937;42.680;27.704;2024-02-23T11:11:13;16.58;;;10.57;;
9795;SDS011;4937;42.680;27.704;2024-02-23T11:13:42;15.85;;;9.95;;
9795;SDS011;4937;42.680;27.704;2024-02-23T11:16:09;13.85;;;8.77;;
9795;SDS011;4937;42.680;27.704;2024-02-23T11:18:35;14.07;;;9.40;;
9795;SDS011;4937;42.680;27.704;2024-02-23T11:21:04;14.05;;;9.43;;
9795;SDS011;4937;42.680;27.704;2024-02-23T11:23:43;15.18;;;8.52;;
9795;SDS011;4937;42.680;27.704;2024-02-23T11:26:17;14.32;;;10.20;;
9795;SDS011;4937;42.680;27.704;2024-02-23T11:28:49;14.57;;;9.50;;
9795;SDS011;4937;42.680;27.704;2024-02-23T11:31:21;13.30;;;9.43;;
9795;SDS011;4937;42.680;27.704;2024-02-23T11:33:55;12.57;;;9.55;;
9795;SDS011;4937;42.680;27.704;2024-02-23T11:36:28;33.08;;;11.38;;
9795;SDS011;4937;42.680;27.704;2024-02-23T11:38:58;28.35;;;10.93;;
9795;SDS011;4937;42.680;27.704;2024-02-23T11:41:25;24.73;;;9.25;;
9795;SDS011;4937;42.680;27.704;2024-02-23T11:43:52;24.08;;;9.52;;
9795;SDS011;4937;42.680;27.704;2024-02-23T11:46:18;34.45;;;10.45;;
9795;SDS011;4937;42.680;27.704;2024-02-23T11:48:45;15.05;;;8.82;;
9795;SDS011;4937;42.680;27.704;2024-02-23T11:51:15;16.80;;;8.93;;
9795;SDS011;4937;42.680;27.704;2024-02-23T11:53:40;14.95;;;9.52;;
9795;SDS011;4937;42.680;27.704;2024-02-23T11:56:07;33.90;;;11.13;;
9795;SDS011;4937;42.680;27.704;2024-02-23T11:58:34;15.82;;;9.15;;
9795;SDS011;4937;42.680;27.704;2024-02-23T12:01:00;22.50;;;10.38;;
9795;SDS011;4937;42.680;27.704;2024-02-23T12:03:30;21.35;;;9.95;;
9795;SDS011;4937;42.680;27.704;2024-02-23T12:06:02;19.38;;;8.88;;
9795;SDS011;4937;42.680;27.704;2024-02-23T12:08:30;37.17;;;11.27;;
9795;SDS011;4937;42.680;27.704;2024-02-23T12:11:06;19.30;;;10.00;;
9795;SDS011;4937;42.680;27.704;2024-02-23T12:13:36;20.25;;;10.23;;
9795;SDS011;4937;42.680;27.704;2024-02-23T12:16:03;17.95;;;10.27;;
9795;SDS011;4937;42.680;27.704;2024-02-23T12:18:29;20.25;;;10.45;;
9795;SDS011;4937;42.680;27.704;2024-02-23T12:23:37;19.05;;;10.32;;
9795;SDS011;4937;42.680;27.704;2024-02-23T12:26:06;22.70;;;9.98;;
9795;SDS011;4937;42.680;27.704;2024-02-23T12:28:32;62.20;;;12.95;;
9795;SDS011;4937;42.680;27.704;2024-02-23T12:31:07;17.58;;;9.57;;
9795;SDS011;4937;42.680;27.704;2024-02-23T12:33:33;25.77;;;11.38;;
9795;SDS011;4937;42.680;27.704;2024-02-23T12:36:01;29.98;;;11.90;;
9795;SDS011;4937;42.680;27.704;2024-02-23T12:38:28;30.70;;;10.38;;
9795;SDS011;4937;42.680;27.704;2024-02-23T12:40:54;27.05;;;10.20;;
9795;SDS011;4937;42.680;27.704;2024-02-23T12:43:20;18.27;;;10.40;;
9795;SDS011;4937;42.680;27.704;2024-02-23T12:45:55;19.55;;;10.60;;
9795;SDS011;4937;42.680;27.704;2024-02-23T12:48:22;29.02;;;11.90;;
9795;SDS011;4937;42.680;27.704;2024-02-23T12:50:48;18.67;;;9.05;;
9795;SDS011;4937;42.680;27.704;2024-02-23T12:53:32;16.65;;;9.98;;
9795;SDS011;4937;42.680;27.704;2024-02-23T12:55:59;30.42;;;11.65;;
9795;SDS011;4937;42.680;27.704;2024-02-23T12:58:26;19.65;;;10.80;;
9795;SDS011;4937;42.680;27.704;2024-02-23T13:00:51;20.15;;;10.48;;
9795;SDS011;4937;42.680;27.704;2024-02-23T13:03:18;16.48;;;10.45;;
9795;SDS011;4937;42.680;27.704;2024-02-23T13:05:43;39.22;;;11.07;;
9795;SDS011;4937;42.680;27.704;2024-02-23T13:08:09;21.15;;;10.05;;
9795;SDS011;4937;42.680;27.704;2024-02-23T13:10:34;19.15;;;9.73;;
9795;SDS011;4937;42.680;27.704;2024-02-23T13:13:00;18.33;;;8.88;;
9795;SDS011;4937;42.680;27.704;2024-02-23T13:15:26;30.63;;;10.30;;
9795;SDS011;4937;42.680;27.704;2024-02-23T13:17:51;29.23;;;9.82;;
9795;SDS011;4937;42.680;27.704;2024-02-23T13:20:17;33.90;;;9.90;;
9795;SDS011;4937;42.680;27.704;2024-02-23T13:22:43;20.42;;;9.57;;
9795;SDS011;4937;42.680;27.704;2024-02-23T13:25:08;24.27;;;9.60;;
9795;SDS011;4937;42.680;27.704;2024-02-23T13:27:34;20.63;;;8.55;;
9795;SDS011;4937;42.680;27.704;2024-02-23T13:29:59;23.40;;;9.25;;
9795;SDS011;4937;42.680;27.704;2024-02-23T13:32:25;19.55;;;9.38;;
9795;SDS011;4937;42.680;27.704;2024-02-23T13:34:50;19.80;;;9.65;;
9795;SDS011;4937;42.680;27.704;2024-02-23T13:37:17;30.42;;;9.73;;
9795;SDS011;4937;42.680;27.704;2024-02-23T13:39:43;16.63;;;8.65;;
9795;SDS011;4937;42.680;27.704;2024-02-23T13:42:09;22.85;;;8.52;;
9795;SDS011;4937;42.680;27.704;2024-02-23T13:44:35;25.98;;;9.43;;
9795;SDS011;4937;42.680;27.704;2024-02-23T13:47:01;14.65;;;8.35;;
9795;SDS011;4937;42.680;27.704;2024-02-23T13:49:27;23.92;;;9.80;;
9795;SDS011;4937;42.680;27.704;2024-02-23T13:51:53;19.05;;;8.57;;
9795;SDS011;4937;42.680;27.704;2024-02-23T13:54:20;17.70;;;9.23;;
9795;SDS011;4937;42.680;27.704;2024-02-23T13:56:45;17.40;;;8.88;;
9795;SDS011;4937;42.680;27.704;2024-02-23T13:59:12;22.30;;;8.95;;
9795;SDS011;4937;42.680;27.704;2024-02-23T14:01:38;23.10;;;10.73;;
9795;SDS011;4937;42.680;27.704;2024-02-23T14:04:07;18.38;;;9.80;;
9795;SDS011;4937;42.680;27.704;2024-02-23T14:06:33;23.08;;;10.05;;
9795;SDS011;4937;42.680;27.704;2024-02-23T14:08:58;15.73;;;8.55;;
9795;SDS011;4937;42.680;27.704;2024-02-23T14:11:24;17.65;;;9.25;;
9795;SDS011;4937;42.680;27.704;2024-02-23T14:13:50;16.27;;;8.75;;
9795;SDS011;4937;42.680;27.704;2024-02-23T14:16:16;16.95;;;10.23;;
9795;SDS011;4937;42.680;27.704;2024-02-23T14:18:42;23.25;;;9.40;;
9795;SDS011;4937;42.680;27.704;2024-02-23T14:21:09;15.02;;;8.30;;
9795;SDS011;4937;42.680;27.704;2024-02-23T14:23:35;20.33;;;9.43;;
9795;SDS011;4937;42.680;27.704;2024-02-23T14:26:01;28.23;;;9.45;;
9795;SDS011;4937;42.680;27.704;2024-02-23T14:28:28;15.85;;;9.05;;
9795;SDS011;4937;42.680;27.704;2024-02-23T14:30:53;19.05;;;9.40;;
9795;SDS011;4937;42.680;27.704;2024-02-23T14:33:19;17.75;;;8.00;;